KAVX/AVX METAR and TAF weather

Enter ICAO airport designator
Station Type Date Time Source
KAVX METAR 2021/01/27 14:12 UTC NOAA

KAVX 271412Z AUTO VRB05KT 10SM FEW016 BKN021 BKN110 08/03 A3013 RMK AO2 T00780033


Station Type Date Time Source
KAVX Decoded METAR 2021/01/27 14:12 UTC NOAA

AVALON CATALINA AIRPORT, CA, United States (KAVX) 33-24N 118-25W 482M
Jan 27, 2021 - 09:12 AM EST / 2021.01.27 1412 UTC
Wind: Variable at 6 MPH (5 KT):0
Visibility: 10 mile(s):0
Sky conditions: mostly cloudy
Temperature: 46.0 F (7.8 C)
Dew Point: 37.9 F (3.3 C)
Relative Humidity: 73%
Pressure (altimeter): 30.13 in. Hg (1020 hPa)
ob: KAVX 271412Z AUTO VRB05KT 10SM FEW016 BKN021 BKN110 08/03 A3013 RMK AO2 T00780033
cycle: 14

Station Type Date Time Source
KAVX TAF UTC NOAA

Error!

Example: see airport list